Time;durP1;ratioP1;P1;durP2;ratioP2;P2;SDS_P1;SDS_P2;PMS_P1;PMS_P2;Temp;Humidity;BMP_temperature;BMP_pressure;BME280_temperature;BME280_humidity;BME280_pressure;Samples;Min_cycle;Max_cycle;Signal;HPM_P1;HPM_P2
2023/01/21 00:02:20;;;;;;;0.20;0.10;;;5.50;99.90;;;;;;21057920;28;20400;-72
2023/01/21 00:12:24;;;;;;;0.20;0.10;;;5.30;99.90;;;;;;21129145;28;20524;-71
2023/01/21 00:22:29;;;;;;;0.20;0.10;;;4.90;99.90;;;;;;21140244;28;20406;-72
2023/01/21 00:32:33;;;;;;;0.20;0.10;;;4.40;99.90;;;;;;21140579;28;20403;-71
2023/01/21 00:42:38;;;;;;;0.20;0.10;;;4.20;99.90;;;;;;21139785;28;20386;-72
2023/01/21 00:52:42;;;;;;;0.20;0.10;;;4.20;99.90;;;;;;21080642;28;20417;-70
2023/01/21 01:02:47;;;;;;;0.20;0.10;;;4.30;99.90;;;;;;21071330;28;20406;-72
2023/01/21 01:12:51;;;;;;;0.20;0.10;;;4.30;99.90;;;;;;21068778;28;20422;-71
2023/01/21 01:22:56;;;;;;;0.20;0.10;;;4.40;99.90;;;;;;21090717;28;20397;-69
2023/01/21 01:33:00;;;;;;;0.20;0.10;;;4.30;99.90;;;;;;21117536;28;20777;-70
2023/01/21 01:43:14;;;;;;;0.20;0.10;;;4.00;99.90;;;;;;21089285;28;20401;-70
2023/01/21 01:53:19;;;;;;;0.20;0.10;;;4.00;99.90;;;;;;21105656;28;20401;-70
2023/01/21 02:03:44;;;;;;;0.20;0.10;;;4.20;99.90;;;;;;21110167;28;20397;-70
2023/01/21 02:13:52;;;;;;;0.20;0.10;;;4.50;99.90;;;;;;21109965;28;20418;-70
2023/01/21 02:24:29;;;;;;;0.20;0.10;;;4.40;99.90;;;;;;21068428;28;20395;-70
2023/01/21 02:34:43;;;;;;;0.20;0.10;;;4.40;99.90;;;;;;21068229;28;20461;-70
2023/01/21 02:44:54;;;;;;;0.20;0.10;;;3.70;99.90;;;;;;21074310;28;20458;-70
2023/01/21 02:55:01;;;;;;;0.20;0.10;;;3.50;99.90;;;;;;21067543;28;20400;-70
2023/01/21 03:05:14;;;;;;;0.20;0.10;;;3.50;99.90;;;;;;21093773;28;20398;-70
2023/01/21 03:25:47;;;;;;;0.20;0.10;;;2.70;99.90;;;;;;21097370;28;20447;-69
2023/01/21 03:35:55;;;;;;;0.20;0.10;;;2.60;99.90;;;;;;21147633;28;20394;-66
2023/01/21 03:46:04;;;;;;;0.20;0.10;;;2.70;99.90;;;;;;21141975;28;20509;-70
2023/01/21 03:56:10;;;;;;;0.20;0.10;;;3.20;99.90;;;;;;21143185;28;20390;-70
2023/01/21 04:06:15;;;;;;;0.20;0.10;;;3.10;99.90;;;;;;21145818;28;20411;-70
2023/01/21 04:16:20;;;;;;;0.20;0.10;;;3.10;99.90;;;;;;21146379;28;20754;-71
2023/01/21 04:26:24;;;;;;;0.20;0.10;;;2.90;99.90;;;;;;21146709;28;20407;-71
2023/01/21 04:36:29;;;;;;;0.20;0.00;;;4.10;99.90;;;;;;21162960;28;20411;-70
2023/01/21 04:46:33;;;;;;;0.20;0.10;;;4.60;99.90;;;;;;21150881;28;20925;-70
2023/01/21 04:56:38;;;;;;;0.20;0.10;;;3.40;99.90;;;;;;21076667;28;20790;-71
2023/01/21 05:06:42;;;;;;;0.20;0.10;;;2.90;99.90;;;;;;21074652;28;20426;-70
2023/01/21 05:16:47;;;;;;;0.20;0.10;;;3.40;99.90;;;;;;21057010;28;20917;-70
2023/01/21 05:26:51;;;;;;;0.20;0.10;;;2.40;99.90;;;;;;21143592;28;20489;-70
2023/01/21 05:36:56;;;;;;;0.20;0.10;;;2.60;99.90;;;;;;21151722;28;20402;-70
2023/01/21 05:47:00;;;;;;;0.20;0.10;;;2.90;99.90;;;;;;21120553;28;20868;-70
2023/01/21 05:57:06;;;;;;;0.20;0.10;;;3.40;99.90;;;;;;21066758;28;20415;-70
2023/01/21 06:07:09;;;;;;;0.20;0.10;;;3.70;99.90;;;;;;21066626;28;20477;-71
2023/01/21 06:17:15;;;;;;;0.20;0.10;;;3.60;99.90;;;;;;21067085;28;20951;-73
2023/01/21 06:27:19;;;;;;;0.20;0.10;;;3.60;99.90;;;;;;21052038;28;2238012;-71
2023/01/21 06:37:24;;;;;;;0.20;0.10;;;4.40;99.90;;;;;;21135558;28;20401;-72
2023/01/21 06:47:28;;;;;;;0.20;0.10;;;4.20;99.90;;;;;;21152476;28;20891;-71
2023/01/21 06:57:33;;;;;;;0.20;0.10;;;3.90;99.90;;;;;;21132194;28;20470;-70
2023/01/21 07:07:37;;;;;;;0.20;0.10;;;4.80;99.90;;;;;;21130917;28;20410;-69
2023/01/21 07:17:43;;;;;;;0.20;0.10;;;4.40;99.90;;;;;;21114302;28;20398;-68
2023/01/21 07:27:47;;;;;;;0.20;0.10;;;4.40;99.90;;;;;;21112098;28;20479;-69
2023/01/21 07:37:52;;;;;;;0.20;0.10;;;4.20;99.90;;;;;;21128367;28;20933;-70
2023/01/21 07:47:56;;;;;;;0.20;0.10;;;4.40;99.90;;;;;;21128114;28;20416;-71
2023/01/21 07:58:01;;;;;;;0.20;0.10;;;4.90;99.90;;;;;;21126552;28;20424;-71
2023/01/21 08:08:05;;;;;;;0.20;0.10;;;5.30;99.90;;;;;;21127789;28;20402;-73
2023/01/21 08:18:10;;;;;;;0.20;0.10;;;5.70;99.90;;;;;;21126581;28;20468;-73
2023/01/21 08:28:14;;;;;;;0.20;0.10;;;6.60;99.90;;;;;;21143586;28;20448;-72
2023/01/21 08:38:19;;;;;;;0.20;0.10;;;6.60;99.90;;;;;;21142970;28;20543;-71
2023/01/21 08:48:23;;;;;;;0.20;0.10;;;7.20;99.90;;;;;;21141933;28;20493;-71
2023/01/21 08:58:28;;;;;;;0.20;0.10;;;7.60;99.90;;;;;;21141257;28;20459;-71
2023/01/21 09:08:35;;;;;;;0.20;0.10;;;8.00;99.90;;;;;;21124751;28;20918;-72
2023/01/21 09:18:40;;;;;;;0.20;0.10;;;8.30;99.90;;;;;;21133254;28;20486;-73
2023/01/21 09:28:45;;;;;;;0.20;0.10;;;8.60;99.90;;;;;;21153144;28;20411;-72
2023/01/21 09:38:51;;;;;;;0.20;0.10;;;8.90;99.90;;;;;;21154764;28;20407;-73
2023/01/21 09:48:57;;;;;;;0.20;0.10;;;9.10;99.90;;;;;;21134969;28;20759;-73
2023/01/21 09:59:08;;;;;;;0.20;0.10;;;9.30;99.90;;;;;;21120279;28;20395;-69
2023/01/21 10:09:48;;;;;;;0.20;0.07;;;9.60;99.90;;;;;;21116168;28;20410;-70
2023/01/21 10:20:11;;;;;;;0.20;0.10;;;9.80;99.90;;;;;;21104861;28;20506;-71
2023/01/21 10:30:24;;;;;;;0.20;0.10;;;10.00;98.30;;;;;;21148579;28;20909;-71
2023/01/21 10:40:44;;;;;;;0.20;0.10;;;10.50;96.80;;;;;;21128973;28;20378;-70
2023/01/21 10:50:54;;;;;;;0.20;0.10;;;11.00;96.20;;;;;;21107747;28;20696;-70
2023/01/21 11:01:03;;;;;;;0.20;0.10;;;11.00;95.00;;;;;;21146659;28;20481;-69
2023/01/21 11:11:08;;;;;;;0.20;0.10;;;11.20;93.90;;;;;;21129198;28;20491;-69
2023/01/21 11:21:20;;;;;;;0.20;0.10;;;12.10;93.60;;;;;;21111229;28;20453;-69
2023/01/21 11:31:28;;;;;;;0.20;0.10;;;12.40;93.40;;;;;;21127361;28;20903;-68
2023/01/21 11:41:34;;;;;;;0.20;0.10;;;12.50;92.60;;;;;;21145450;28;20413;-66
2023/01/21 11:51:39;;;;;;;0.20;0.00;;;12.90;92.10;;;;;;21126912;28;20414;-69
2023/01/21 12:01:51;;;;;;;0.20;0.10;;;12.80;91.70;;;;;;21144389;28;20386;-69
2023/01/21 12:12:31;;;;;;;0.20;0.10;;;12.90;91.40;;;;;;21124142;28;20407;-70
2023/01/21 12:22:50;;;;;;;0.20;0.10;;;13.60;91.30;;;;;;21124219;28;20407;-70
2023/01/21 12:32:59;;;;;;;0.20;0.10;;;14.00;89.70;;;;;;21140598;28;20426;-68
2023/01/21 12:43:13;;;;;;;0.20;0.10;;;14.40;88.60;;;;;;21106153;28;20421;-70
2023/01/21 12:53:24;;;;;;;0.20;0.10;;;13.90;88.50;;;;;;21133674;28;20442;-68
2023/01/21 13:03:39;;;;;;;0.20;0.10;;;14.00;87.00;;;;;;21121370;28;20436;-70
2023/01/21 13:13:49;;;;;;;0.20;0.10;;;15.00;87.00;;;;;;21156535;28;20486;-71
2023/01/21 13:23:58;;;;;;;0.20;0.10;;;14.30;86.30;;;;;;21156054;28;20950;-70
2023/01/21 13:34:09;;;;;;;0.20;0.10;;;14.50;87.10;;;;;;21120597;28;20756;-70
2023/01/21 13:44:44;;;;;;;0.20;0.10;;;14.30;84.10;;;;;;21154768;28;20413;-69
2023/01/21 13:55:11;;;;;;;0.20;0.10;;;14.90;82.70;;;;;;21134738;28;20719;-70
2023/01/21 14:05:22;;;;;;;0.20;0.10;;;14.20;80.70;;;;;;21152272;28;20391;-70
2023/01/21 14:15:44;;;;;;;0.20;0.10;;;13.40;83.50;;;;;;21151474;28;21117;-69
2023/01/21 14:26:09;;;;;;;0.20;0.10;;;13.40;88.80;;;;;;21148398;28;20493;-70
2023/01/21 14:36:17;;;;;;;0.20;0.10;;;15.00;88.90;;;;;;21127558;28;20399;-70
2023/01/21 14:46:32;;;;;;;0.20;0.10;;;14.40;89.00;;;;;;21145183;28;20958;-70
2023/01/21 14:56:38;;;;;;;0.20;0.10;;;14.80;89.30;;;;;;21110978;28;20560;-69
2023/01/21 15:06:43;;;;;;;0.20;0.10;;;14.50;90.00;;;;;;21145429;28;20394;-70
2023/01/21 15:16:48;;;;;;;0.20;0.10;;;13.50;90.00;;;;;;21218304;27;20416;-71
2023/01/21 15:27:17;;;;;;;0.20;0.10;;;14.20;89.90;;;;;;21209346;27;20505;-70
2023/01/21 15:37:23;;;;;;;0.20;0.10;;;14.50;89.30;;;;;;21209022;27;20400;-70
2023/01/21 15:47:48;;;;;;;0.20;0.10;;;14.20;89.30;;;;;;21190413;27;20394;-70
2023/01/21 15:58:01;;;;;;;0.20;0.10;;;13.00;90.80;;;;;;21105988;28;20401;-70
2023/01/21 16:08:20;;;;;;;0.20;0.05;;;12.40;91.40;;;;;;21122208;28;20407;-71
2023/01/21 16:18:32;;;;;;;0.20;0.10;;;12.10;92.70;;;;;;21139051;28;20399;-72
2023/01/21 16:28:49;;;;;;;0.20;0.10;;;11.20;83.90;;;;;;21134939;28;20430;-70
2023/01/21 16:38:52;;;;;;;0.20;0.10;;;10.50;84.60;;;;;;21172108;27;20396;-66
2023/01/21 16:48:59;;;;;;;0.20;0.10;;;10.10;85.10;;;;;;21209806;27;20406;-70
2023/01/21 16:59:02;;;;;;;0.20;0.10;;;9.80;87.70;;;;;;21161211;27;20480;-68
2023/01/21 17:09:18;;;;;;;0.20;0.10;;;9.50;88.90;;;;;;21216728;27;20405;-68
2023/01/21 17:19:28;;;;;;;0.20;0.10;;;9.10;90.10;;;;;;21239146;27;20404;-69
2023/01/21 17:29:34;;;;;;;0.20;0.10;;;8.90;90.50;;;;;;21214709;27;20446;-69
2023/01/21 17:40:01;;;;;;;0.20;0.10;;;8.40;91.40;;;;;;21215759;27;20891;-70
2023/01/21 17:50:21;;;;;;;0.20;0.10;;;8.00;92.30;;;;;;21158897;27;20429;-72
2023/01/21 18:00:29;;;;;;;0.20;0.10;;;8.30;91.90;;;;;;21115095;28;20812;-69
2023/01/21 18:10:37;;;;;;;0.20;0.10;;;8.50;92.20;;;;;;21131108;28;20514;-71
2023/01/21 18:20:41;;;;;;;0.20;0.10;;;8.30;92.70;;;;;;21177044;27;20545;-71
2023/01/21 18:30:47;;;;;;;0.20;0.10;;;7.80;93.60;;;;;;21172067;27;20416;-71
2023/01/21 18:40:52;;;;;;;0.20;0.10;;;7.70;94.20;;;;;;21237272;27;20511;-69
2023/01/21 18:50:57;;;;;;;0.20;0.10;;;7.40;94.70;;;;;;21147026;27;20800;-71
2023/01/21 19:01:01;;;;;;;0.20;0.10;;;7.80;92.60;;;;;;21145111;28;20395;-70
2023/01/21 19:11:21;;;;;;;0.20;0.10;;;7.90;92.00;;;;;;21143457;28;20509;-70
2023/01/21 19:21:24;;;;;;;0.20;0.10;;;7.80;92.10;;;;;;21200005;27;20397;-70
2023/01/21 19:31:30;;;;;;;0.20;0.10;;;7.70;92.50;;;;;;21225038;27;20412;-69
2023/01/21 19:41:34;;;;;;;0.20;0.10;;;7.50;92.90;;;;;;21206837;27;20403;-71
2023/01/21 19:51:39;;;;;;;0.20;0.10;;;7.20;92.70;;;;;;21152964;27;20411;-71
2023/01/21 20:01:44;;;;;;;0.20;0.10;;;7.10;92.10;;;;;;21155407;27;21225;-71
2023/01/21 20:11:50;;;;;;;0.20;0.10;;;6.80;92.20;;;;;;21225728;27;20445;-72
2023/01/21 20:21:54;;;;;;;0.20;0.10;;;6.50;92.40;;;;;;21205168;27;20440;-73
2023/01/21 20:32:06;;;;;;;0.20;0.10;;;6.30;92.80;;;;;;21188658;28;20507;-71
2023/01/21 20:42:12;;;;;;;0.20;0.10;;;6.10;93.50;;;;;;21222742;28;20392;-71
2023/01/21 20:52:17;;;;;;;0.20;0.10;;;5.90;93.10;;;;;;21175073;27;20401;-72
2023/01/21 21:02:21;;;;;;;0.20;0.10;;;5.60;93.90;;;;;;21211230;27;20935;-71
2023/01/21 21:12:26;;;;;;;0.20;0.10;;;5.30;93.80;;;;;;21235796;27;20416;-72
2023/01/21 21:22:30;;;;;;;0.20;0.10;;;5.20;93.80;;;;;;21224461;27;20395;-70
2023/01/21 21:32:35;;;;;;;0.20;0.10;;;5.30;93.70;;;;;;21242019;27;20458;-71
2023/01/21 21:53:02;;;;;;;0.20;0.10;;;4.90;93.70;;;;;;21222449;27;20488;-70
2023/01/21 22:03:06;;;;;;;0.20;0.10;;;5.70;94.40;;;;;;21236478;27;20463;-71
2023/01/21 22:13:12;;;;;;;0.20;0.10;;;5.50;97.90;;;;;;21222167;27;20445;-71
2023/01/21 22:23:15;;;;;;;0.20;0.10;;;5.40;98.10;;;;;;21177548;27;20501;-69
2023/01/21 22:33:21;;;;;;;0.20;0.10;;;4.40;98.20;;;;;;21240680;27;20425;-70
2023/01/21 22:43:25;;;;;;;0.20;0.10;;;3.60;97.20;;;;;;21241939;27;20439;-69
2023/01/21 22:53:33;;;;;;;0.20;0.10;;;3.60;97.60;;;;;;21236760;27;20504;-70
2023/01/21 23:03:37;;;;;;;0.20;0.10;;;3.50;98.30;;;;;;21209331;27;20386;-69
2023/01/21 23:13:42;;;;;;;0.20;0.10;;;3.30;99.90;;;;;;21210631;27;20435;-67
2023/01/21 23:23:46;;;;;;;0.20;0.10;;;3.30;99.90;;;;;;21214488;27;20412;-64
2023/01/21 23:33:53;;;;;;;0.20;0.10;;;3.10;99.90;;;;;;21212246;27;20393;-68
2023/01/21 23:43:59;;;;;;;0.20;0.10;;;2.90;99.90;;;;;;21159271;27;20721;-71
2023/01/21 23:54:05;;;;;;;0.20;0.10;;;3.00;99.90;;;;;;21182273;27;20412;-69
